Time;durP1;ratioP1;P1;durP2;ratioP2;P2;SDS_P1;SDS_P2;PMS_P1;PMS_P2;Temp;Humidity;BMP_temperature;BMP_pressure;BME280_temperature;BME280_humidity;BME280_pressure;Samples;Min_cycle;Max_cycle;Signal;HPM_P1;HPM_P2
2023/06/12 00:01:12;;;;;;;3.22;2.92;;;;;;;;;;5144643;27;20050;-56
2023/06/12 00:03:40;;;;;;;3.42;3.00;;;;;;;;;;5135361;27;20051;-55
2023/06/12 00:06:09;;;;;;;4.43;3.42;;;;;;;;;;5149938;27;20543;-53
2023/06/12 00:08:36;;;;;;;5.00;3.38;;;;;;;;;;5133126;27;20595;-55
2023/06/12 00:11:09;;;;;;;6.57;3.30;;;;;;;;;;5130593;27;20058;-56
2023/06/12 00:13:35;;;;;;;4.28;2.85;;;;;;;;;;5149041;27;20120;-56
2023/06/12 00:16:02;;;;;;;3.50;3.15;;;;;;;;;;5147010;27;20047;-52
2023/06/12 00:18:29;;;;;;;3.72;3.33;;;;;;;;;;5131223;27;20137;-57
2023/06/12 00:20:56;;;;;;;4.57;3.13;;;;;;;;;;5149994;27;20055;-55
2023/06/12 00:23:22;;;;;;;4.38;3.22;;;;;;;;;;5149523;27;20125;-53
2023/06/12 00:25:49;;;;;;;4.05;3.70;;;;;;;;;;5129798;27;20109;-54
2023/06/12 00:28:15;;;;;;;4.07;3.58;;;;;;;;;;5134326;27;20047;-56
2023/06/12 00:30:41;;;;;;;3.72;3.35;;;;;;;;;;5136822;27;20099;-54
2023/06/12 00:33:08;;;;;;;3.88;3.40;;;;;;;;;;5147974;27;20061;-51
2023/06/12 00:35:34;;;;;;;4.43;3.00;;;;;;;;;;5131961;27;20051;-56
2023/06/12 00:38:00;;;;;;;3.95;2.83;;;;;;;;;;5132488;27;20434;-55
2023/06/12 00:40:27;;;;;;;7.65;3.53;;;;;;;;;;5143752;27;20519;-55
2023/06/12 00:42:53;;;;;;;3.42;3.13;;;;;;;;;;5145349;27;20043;-57
2023/06/12 00:45:23;;;;;;;4.63;3.50;;;;;;;;;;5144570;27;20098;-52
2023/06/12 00:47:55;;;;;;;8.68;3.30;;;;;;;;;;5147786;27;20062;-56
2023/06/12 00:50:28;;;;;;;4.65;3.05;;;;;;;;;;5150305;27;20126;-55
2023/06/12 00:52:56;;;;;;;4.47;3.30;;;;;;;;;;5127845;27;20047;-55
2023/06/12 00:55:22;;;;;;;4.57;3.42;;;;;;;;;;5137659;27;20047;-55
2023/06/12 00:57:49;;;;;;;3.70;3.00;;;;;;;;;;5143813;27;20063;-53
2023/06/12 01:00:17;;;;;;;4.75;3.05;;;;;;;;;;5135812;27;20055;-56
2023/06/12 01:02:46;;;;;;;3.65;3.15;;;;;;;;;;5142483;27;20058;-55
2023/06/12 01:05:14;;;;;;;4.72;3.05;;;;;;;;;;5131809;27;20059;-55
2023/06/12 01:07:44;;;;;;;5.97;3.30;;;;;;;;;;5133139;27;20787;-56
2023/06/12 01:10:22;;;;;;;3.80;3.30;;;;;;;;;;5144541;27;20043;-57
2023/06/12 01:12:50;;;;;;;3.72;3.33;;;;;;;;;;5134630;27;20054;-56
2023/06/12 01:15:17;;;;;;;4.72;3.47;;;;;;;;;;5149112;27;20055;-57
2023/06/12 01:17:43;;;;;;;3.75;3.35;;;;;;;;;;5141127;27;20577;-53
2023/06/12 01:20:12;;;;;;;4.45;3.50;;;;;;;;;;5128841;27;20047;-56
2023/06/12 01:22:49;;;;;;;5.53;3.50;;;;;;;;;;5129147;27;20101;-56
2023/06/12 01:25:35;;;;;;;3.58;3.25;;;;;;;;;;5134160;27;20109;-56
2023/06/12 01:28:25;;;;;;;3.50;3.20;;;;;;;;;;5137717;27;20082;-55
2023/06/12 01:31:06;;;;;;;5.32;3.15;;;;;;;;;;5123127;27;20047;-53
2023/06/12 01:33:36;;;;;;;5.57;3.42;;;;;;;;;;5110311;27;20132;-57
2023/06/12 01:36:04;;;;;;;4.00;3.00;;;;;;;;;;5146082;27;20851;-53
2023/06/12 01:38:32;;;;;;;5.38;4.00;;;;;;;;;;5140998;27;20091;-55
2023/06/12 01:40:59;;;;;;;3.53;3.15;;;;;;;;;;5130205;27;20739;-54
2023/06/12 01:43:26;;;;;;;4.50;3.40;;;;;;;;;;5130892;27;20093;-56
2023/06/12 01:45:52;;;;;;;4.70;3.40;;;;;;;;;;5147617;27;20063;-56
2023/06/12 01:48:18;;;;;;;12.57;3.20;;;;;;;;;;5136014;27;20078;-56
2023/06/12 01:50:45;;;;;;;5.20;3.40;;;;;;;;;;5133739;27;20141;-56
2023/06/12 01:53:13;;;;;;;3.63;3.15;;;;;;;;;;5133039;27;20081;-56
2023/06/12 01:55:41;;;;;;;5.20;3.53;;;;;;;;;;5143498;27;20488;-55
2023/06/12 01:58:08;;;;;;;6.00;3.58;;;;;;;;;;5131338;27;20055;-54
2023/06/12 02:00:35;;;;;;;4.88;2.95;;;;;;;;;;5143184;27;20047;-55
2023/06/12 02:03:02;;;;;;;7.82;3.70;;;;;;;;;;5139734;27;20604;-51
2023/06/12 02:05:29;;;;;;;6.38;3.33;;;;;;;;;;5128562;27;20054;-53
2023/06/12 02:07:55;;;;;;;4.47;4.05;;;;;;;;;;5145366;27;20400;-54
2023/06/12 02:10:21;;;;;;;4.45;3.35;;;;;;;;;;5147853;27;20527;-53
2023/06/12 02:12:48;;;;;;;4.35;3.20;;;;;;;;;;5147809;27;20134;-56
2023/06/12 02:15:14;;;;;;;4.63;3.63;;;;;;;;;;5140545;27;20109;-53
2023/06/12 02:17:41;;;;;;;4.93;3.47;;;;;;;;;;5132220;27;20062;-52
2023/06/12 02:20:08;;;;;;;5.85;3.40;;;;;;;;;;5138889;27;20051;-54
2023/06/12 02:22:35;;;;;;;3.92;3.53;;;;;;;;;;5135787;27;20788;-55
2023/06/12 02:25:02;;;;;;;5.03;3.85;;;;;;;;;;5146923;27;20120;-53
2023/06/12 02:27:28;;;;;;;6.93;3.17;;;;;;;;;;5139202;27;20055;-54
2023/06/12 02:29:54;;;;;;;3.40;3.10;;;;;;;;;;5137690;27;20134;-53
2023/06/12 02:32:21;;;;;;;4.68;3.65;;;;;;;;;;5148794;27;20076;-54
2023/06/12 02:34:48;;;;;;;6.72;3.40;;;;;;;;;;5142866;27;20056;-53
2023/06/12 02:37:14;;;;;;;4.32;3.42;;;;;;;;;;5137179;27;20100;-53
2023/06/12 02:39:41;;;;;;;6.28;3.42;;;;;;;;;;5143811;27;20058;-55
2023/06/12 02:42:07;;;;;;;11.32;3.40;;;;;;;;;;5127614;27;20567;-55
2023/06/12 02:44:34;;;;;;;6.80;3.35;;;;;;;;;;5140128;27;20051;-57
2023/06/12 02:47:00;;;;;;;5.55;3.33;;;;;;;;;;5127844;27;20108;-55
2023/06/12 02:49:28;;;;;;;10.38;3.40;;;;;;;;;;5147565;27;20051;-53
2023/06/12 02:51:55;;;;;;;4.38;3.42;;;;;;;;;;5147919;27;20142;-55
2023/06/12 02:54:26;;;;;;;5.13;3.78;;;;;;;;;;5134197;27;20066;-52
2023/06/12 02:56:52;;;;;;;5.22;4.05;;;;;;;;;;5127769;27;20561;-57
2023/06/12 02:59:20;;;;;;;7.88;3.72;;;;;;;;;;5133371;27;20563;-52
2023/06/12 03:01:46;;;;;;;5.75;3.30;;;;;;;;;;5131235;27;20139;-52
2023/06/12 03:04:15;;;;;;;5.40;3.72;;;;;;;;;;5133219;27;20055;-50
2023/06/12 03:06:44;;;;;;;5.28;3.72;;;;;;;;;;5140614;27;20142;-52
2023/06/12 03:09:12;;;;;;;4.63;3.47;;;;;;;;;;5139040;27;20044;-55
2023/06/12 03:11:38;;;;;;;4.50;3.50;;;;;;;;;;5133330;27;20055;-54
2023/06/12 03:14:08;;;;;;;6.60;3.42;;;;;;;;;;5130652;27;20052;-53
2023/06/12 03:16:34;;;;;;;5.40;3.42;;;;;;;;;;5139913;27;20134;-55
2023/06/12 03:19:00;;;;;;;3.78;3.40;;;;;;;;;;5134143;27;20061;-55
2023/06/12 03:21:27;;;;;;;5.55;4.05;;;;;;;;;;5144822;27;20478;-53
2023/06/12 03:23:54;;;;;;;4.32;3.33;;;;;;;;;;5136876;27;20075;-53
2023/06/12 03:26:20;;;;;;;4.05;3.55;;;;;;;;;;5142379;27;20055;-54
2023/06/12 03:28:47;;;;;;;3.85;3.45;;;;;;;;;;5144952;27;20056;-53
2023/06/12 03:31:13;;;;;;;3.85;3.45;;;;;;;;;;5135067;27;20734;-55
2023/06/12 03:33:39;;;;;;;3.65;3.30;;;;;;;;;;5133883;27;20492;-53
2023/06/12 03:36:06;;;;;;;5.13;3.75;;;;;;;;;;5145522;27;20048;-52
2023/06/12 03:38:33;;;;;;;5.80;3.22;;;;;;;;;;5146254;27;20087;-52
2023/06/12 03:40:59;;;;;;;5.88;3.75;;;;;;;;;;5142760;27;20097;-58
2023/06/12 03:43:25;;;;;;;7.50;3.88;;;;;;;;;;5151232;27;20055;-55
2023/06/12 03:45:52;;;;;;;3.95;3.42;;;;;;;;;;5138275;27;20048;-57
2023/06/12 03:48:18;;;;;;;7.53;3.67;;;;;;;;;;5149882;27;20054;-56
2023/06/12 03:50:45;;;;;;;5.25;3.88;;;;;;;;;;5134669;27;20055;-56
2023/06/12 03:53:11;;;;;;;4.45;3.70;;;;;;;;;;5136170;27;20052;-54
2023/06/12 03:55:37;;;;;;;5.85;3.90;;;;;;;;;;5140916;27;20484;-54
2023/06/12 03:58:04;;;;;;;5.43;3.90;;;;;;;;;;5147791;27;20074;-54
2023/06/12 04:00:30;;;;;;;5.50;3.67;;;;;;;;;;5141734;27;20566;-51
2023/06/12 04:02:57;;;;;;;5.05;3.78;;;;;;;;;;5134641;27;20420;-52
2023/06/12 04:05:23;;;;;;;3.40;3.03;;;;;;;;;;5130615;27;20052;-53
2023/06/12 04:07:50;;;;;;;5.20;3.75;;;;;;;;;;5136792;27;20134;-54
2023/06/12 04:10:16;;;;;;;4.60;3.97;;;;;;;;;;5146280;27;20051;-56
2023/06/12 04:12:42;;;;;;;6.03;4.00;;;;;;;;;;5114817;27;20097;-55
2023/06/12 04:15:09;;;;;;;4.70;3.50;;;;;;;;;;5141860;27;20748;-56
2023/06/12 04:17:35;;;;;;;6.70;3.92;;;;;;;;;;5149091;27;20447;-54
2023/06/12 04:20:02;;;;;;;5.32;3.90;;;;;;;;;;5148834;27;20883;-55
2023/06/12 04:22:29;;;;;;;5.03;3.70;;;;;;;;;;5136205;27;20523;-56
2023/06/12 04:25:00;;;;;;;4.97;4.28;;;;;;;;;;5146291;27;20075;-54
2023/06/12 04:27:26;;;;;;;6.28;3.45;;;;;;;;;;5132744;27;20151;-57
2023/06/12 04:29:56;;;;;;;5.10;3.53;;;;;;;;;;5134991;27;20493;-53
2023/06/12 04:32:23;;;;;;;5.25;3.75;;;;;;;;;;5149996;27;20814;-55
2023/06/12 04:34:50;;;;;;;4.72;3.63;;;;;;;;;;5131092;27;20052;-56
2023/06/12 04:37:18;;;;;;;4.45;3.60;;;;;;;;;;5139063;27;20108;-56
2023/06/12 04:39:45;;;;;;;4.28;3.58;;;;;;;;;;5140607;27;20060;-58
2023/06/12 04:42:16;;;;;;;4.50;3.40;;;;;;;;;;5132404;27;20128;-56
2023/06/12 04:44:43;;;;;;;4.05;3.65;;;;;;;;;;5141888;27;20134;-54
2023/06/12 04:47:11;;;;;;;8.32;4.47;;;;;;;;;;5137189;27;20540;-53
2023/06/12 04:49:40;;;;;;;5.85;3.65;;;;;;;;;;5122266;27;20522;-52
2023/06/12 04:52:07;;;;;;;8.48;4.22;;;;;;;;;;5146945;27;20057;-57
2023/06/12 04:54:38;;;;;;;5.68;3.97;;;;;;;;;;5143537;27;20101;-56
2023/06/12 04:57:12;;;;;;;7.18;3.72;;;;;;;;;;5147169;27;20520;-58
2023/06/12 04:59:39;;;;;;;5.18;4.18;;;;;;;;;;5130332;27;20052;-54
2023/06/12 05:02:08;;;;;;;4.93;3.70;;;;;;;;;;5130439;27;20067;-56
2023/06/12 05:04:36;;;;;;;5.25;3.88;;;;;;;;;;5132174;27;20079;-57
2023/06/12 05:07:13;;;;;;;5.70;3.95;;;;;;;;;;5131056;27;20058;-55
2023/06/12 05:09:40;;;;;;;8.75;3.83;;;;;;;;;;5139862;27;20051;-56
2023/06/12 05:12:06;;;;;;;5.45;4.00;;;;;;;;;;5143253;27;20079;-55
2023/06/12 05:14:34;;;;;;;4.85;3.83;;;;;;;;;;5145635;27;20093;-54
2023/06/12 05:17:00;;;;;;;10.02;3.97;;;;;;;;;;5129655;27;20504;-55
2023/06/12 05:19:28;;;;;;;5.32;3.83;;;;;;;;;;5128130;27;20055;-57
2023/06/12 05:21:54;;;;;;;5.93;4.25;;;;;;;;;;5124075;27;20051;-53
2023/06/12 05:24:21;;;;;;;5.13;4.20;;;;;;;;;;5141895;27;20108;-55
2023/06/12 05:26:48;;;;;;;5.65;4.00;;;;;;;;;;5130802;27;20074;-56
2023/06/12 05:29:14;;;;;;;5.22;4.20;;;;;;;;;;5131003;27;20551;-57
2023/06/12 05:31:40;;;;;;;8.93;4.13;;;;;;;;;;5143746;27;20098;-57
2023/06/12 05:34:06;;;;;;;4.20;3.80;;;;;;;;;;5147451;27;20051;-53
2023/06/12 05:36:33;;;;;;;6.13;4.35;;;;;;;;;;5130895;27;20047;-56
2023/06/12 05:38:59;;;;;;;10.32;4.05;;;;;;;;;;5130429;27;20046;-55
2023/06/12 05:41:26;;;;;;;4.43;3.97;;;;;;;;;;5133161;27;20563;-57
2023/06/12 05:43:52;;;;;;;5.55;4.25;;;;;;;;;;5128139;27;20063;-57
2023/06/12 05:46:19;;;;;;;6.75;3.75;;;;;;;;;;5134744;27;20514;-56
2023/06/12 05:48:45;;;;;;;7.88;4.55;;;;;;;;;;5140877;27;20056;-54
2023/06/12 05:51:12;;;;;;;9.98;4.22;;;;;;;;;;5133219;27;20052;-56
2023/06/12 05:53:38;;;;;;;7.75;4.03;;;;;;;;;;5127943;27;20083;-57
2023/06/12 05:56:05;;;;;;;6.50;3.97;;;;;;;;;;5128431;27;20047;-55
2023/06/12 05:58:36;;;;;;;9.38;4.03;;;;;;;;;;5134666;27;20104;-56
2023/06/12 06:01:03;;;;;;;6.13;4.25;;;;;;;;;;5128439;27;20508;-56
2023/06/12 06:03:32;;;;;;;6.28;4.05;;;;;;;;;;5129667;27;20054;-56
2023/06/12 06:05:59;;;;;;;5.53;4.65;;;;;;;;;;5128291;27;20099;-52
2023/06/12 06:08:26;;;;;;;5.55;4.07;;;;;;;;;;5128983;27;20086;-57
2023/06/12 06:10:52;;;;;;;7.05;4.68;;;;;;;;;;5131385;27;20055;-57
2023/06/12 06:13:18;;;;;;;6.65;3.78;;;;;;;;;;5141709;27;20047;-56
2023/06/12 06:15:45;;;;;;;4.18;3.30;;;;;;;;;;5146420;27;20047;-55
2023/06/12 06:18:12;;;;;;;4.32;3.60;;;;;;;;;;5147947;27;20047;-55
2023/06/12 06:20:38;;;;;;;3.90;3.47;;;;;;;;;;5136760;27;20209;-55
2023/06/12 06:23:04;;;;;;;6.55;4.43;;;;;;;;;;5141857;27;20554;-57
2023/06/12 06:25:31;;;;;;;7.47;4.53;;;;;;;;;;5139300;27;20142;-57
2023/06/12 06:27:58;;;;;;;5.75;4.50;;;;;;;;;;5137417;27;20424;-55
2023/06/12 06:30:24;;;;;;;14.10;4.13;;;;;;;;;;5138148;27;20059;-56
2023/06/12 06:32:51;;;;;;;7.22;4.00;;;;;;;;;;5136079;27;20051;-56
2023/06/12 06:35:17;;;;;;;5.97;4.20;;;;;;;;;;5130085;27;20087;-54
2023/06/12 06:37:44;;;;;;;6.00;5.05;;;;;;;;;;5134439;27;20051;-57
2023/06/12 06:40:10;;;;;;;6.78;5.10;;;;;;;;;;5150687;27;20079;-56
2023/06/12 06:42:37;;;;;;;5.63;4.13;;;;;;;;;;5150952;27;20435;-57
2023/06/12 06:45:03;;;;;;;8.48;4.38;;;;;;;;;;5149691;27;20047;-53
2023/06/12 06:47:30;;;;;;;5.47;4.10;;;;;;;;;;5145351;27;20100;-56
2023/06/12 06:49:56;;;;;;;6.13;3.78;;;;;;;;;;5148128;27;20051;-56
2023/06/12 06:52:23;;;;;;;8.18;3.75;;;;;;;;;;5151361;27;20796;-51
2023/06/12 06:54:49;;;;;;;5.25;4.25;;;;;;;;;;5150888;27;21122;-54
2023/06/12 06:57:16;;;;;;;10.02;4.50;;;;;;;;;;5148157;27;20140;-55
2023/06/12 06:59:42;;;;;;;10.55;4.15;;;;;;;;;;5129973;27;20803;-56
2023/06/12 07:02:08;;;;;;;6.53;3.80;;;;;;;;;;5133664;27;20488;-56
2023/06/12 07:04:35;;;;;;;7.20;4.32;;;;;;;;;;5133953;27;20077;-58
2023/06/12 07:07:03;;;;;;;5.38;4.20;;;;;;;;;;5140164;27;20055;-55
2023/06/12 07:09:29;;;;;;;5.85;3.83;;;;;;;;;;5148176;27;20688;-56
2023/06/12 07:11:56;;;;;;;10.30;4.05;;;;;;;;;;5138786;27;20112;-54
2023/06/12 07:14:22;;;;;;;5.68;3.50;;;;;;;;;;5137245;27;20050;-51
2023/06/12 07:16:48;;;;;;;6.57;3.92;;;;;;;;;;5152532;27;20458;-56
2023/06/12 07:19:15;;;;;;;4.95;3.92;;;;;;;;;;5150861;27;20051;-54
2023/06/12 07:21:41;;;;;;;8.30;3.83;;;;;;;;;;5154098;27;20512;-57
2023/06/12 07:24:08;;;;;;;6.07;3.90;;;;;;;;;;5154342;27;20074;-55
2023/06/12 07:26:35;;;;;;;5.07;4.40;;;;;;;;;;5154223;27;20564;-58
2023/06/12 07:29:03;;;;;;;7.32;3.90;;;;;;;;;;5153908;27;20108;-57
2023/06/12 07:31:29;;;;;;;4.45;3.85;;;;;;;;;;5145713;27;20075;-56
2023/06/12 07:33:56;;;;;;;5.13;4.30;;;;;;;;;;5133874;27;20121;-54
2023/06/12 07:36:22;;;;;;;7.20;3.53;;;;;;;;;;5134434;27;21133;-57
2023/06/12 07:38:49;;;;;;;7.13;4.25;;;;;;;;;;5133171;27;20130;-53
2023/06/12 07:41:15;;;;;;;4.78;3.97;;;;;;;;;;5115266;27;20342;-56
2023/06/12 07:43:42;;;;;;;4.75;3.75;;;;;;;;;;5132793;27;20051;-56
2023/06/12 07:46:08;;;;;;;5.47;4.30;;;;;;;;;;5144093;27;20200;-56
2023/06/12 07:48:34;;;;;;;7.60;5.53;;;;;;;;;;5153755;27;20506;-57
2023/06/12 07:51:01;;;;;;;5.22;3.80;;;;;;;;;;5154091;27;20082;-55
2023/06/12 07:53:27;;;;;;;5.22;3.75;;;;;;;;;;5149217;27;20192;-57
2023/06/12 07:56:03;;;;;;;4.53;3.60;;;;;;;;;;5134052;27;20075;-52
2023/06/12 07:58:30;;;;;;;6.40;3.60;;;;;;;;;;5147277;27;20147;-53
2023/06/12 08:00:57;;;;;;;5.28;4.10;;;;;;;;;;5140112;27;20493;-55
2023/06/12 08:03:28;;;;;;;6.40;4.10;;;;;;;;;;5132024;27;20646;-55
2023/06/12 08:05:57;;;;;;;5.13;3.60;;;;;;;;;;5134427;27;20056;-57
2023/06/12 08:08:24;;;;;;;10.20;4.50;;;;;;;;;;5142990;27;20589;-57
2023/06/12 08:10:50;;;;;;;5.22;3.90;;;;;;;;;;5152654;27;20061;-56
2023/06/12 08:13:17;;;;;;;7.95;4.30;;;;;;;;;;5141998;27;20560;-53
2023/06/12 08:15:43;;;;;;;7.50;4.53;;;;;;;;;;5132821;27;20394;-52
2023/06/12 08:18:10;;;;;;;7.95;3.97;;;;;;;;;;5132168;27;20052;-57
2023/06/12 08:20:37;;;;;;;5.70;4.35;;;;;;;;;;5134751;27;20090;-57
2023/06/12 08:23:03;;;;;;;4.70;4.20;;;;;;;;;;5147686;27;20055;-57
2023/06/12 08:25:30;;;;;;;4.40;3.92;;;;;;;;;;5153295;27;20130;-56
2023/06/12 08:27:57;;;;;;;5.57;4.15;;;;;;;;;;5149303;27;20101;-57
2023/06/12 08:30:23;;;;;;;5.88;4.10;;;;;;;;;;5132040;27;20052;-57
2023/06/12 08:32:50;;;;;;;12.50;4.20;;;;;;;;;;5132469;27;20052;-52
2023/06/12 08:35:16;;;;;;;9.32;4.18;;;;;;;;;;5132747;27;20078;-53
2023/06/12 08:37:42;;;;;;;5.68;3.97;;;;;;;;;;5132620;27;20083;-54
2023/06/12 08:40:10;;;;;;;4.68;3.97;;;;;;;;;;5132752;27;20101;-54
2023/06/12 08:42:37;;;;;;;4.70;4.05;;;;;;;;;;5132262;27;20126;-51
2023/06/12 08:45:07;;;;;;;6.90;4.20;;;;;;;;;;5132177;27;20048;-54
2023/06/12 08:47:49;;;;;;;5.78;4.28;;;;;;;;;;5132135;27;20075;-55
2023/06/12 08:50:17;;;;;;;4.93;4.43;;;;;;;;;;5136866;27;20444;-54
2023/06/12 08:52:44;;;;;;;7.07;4.40;;;;;;;;;;5137977;27;20051;-46
2023/06/12 08:55:14;;;;;;;7.15;4.47;;;;;;;;;;5145514;27;20063;-58
2023/06/12 08:57:41;;;;;;;9.23;4.07;;;;;;;;;;5146258;27;20112;-59
2023/06/12 09:00:12;;;;;;;3.80;3.50;;;;;;;;;;5139002;27;20062;-58
2023/06/12 09:02:48;;;;;;;4.72;3.80;;;;;;;;;;5134007;27;20059;-59
2023/06/12 09:05:20;;;;;;;6.60;3.80;;;;;;;;;;5133937;27;20058;-58
2023/06/12 09:07:47;;;;;;;4.10;3.70;;;;;;;;;;5133105;27;20142;-59
2023/06/12 09:10:14;;;;;;;7.22;3.75;;;;;;;;;;5151482;27;20054;-59
2023/06/12 09:12:43;;;;;;;6.90;3.50;;;;;;;;;;5131055;27;20083;-62
2023/06/12 09:15:15;;;;;;;4.25;3.30;;;;;;;;;;5113558;27;20513;-59
2023/06/12 09:17:42;;;;;;;4.63;3.65;;;;;;;;;;5138574;27;20058;-58
2023/06/12 09:20:14;;;;;;;3.78;3.30;;;;;;;;;;5141087;27;20063;-59
2023/06/12 09:22:58;;;;;;;4.80;3.33;;;;;;;;;;5142754;27;20493;-60
2023/06/12 09:25:44;;;;;;;6.40;3.58;;;;;;;;;;5138923;27;20152;-58
2023/06/12 09:28:36;;;;;;;3.95;3.10;;;;;;;;;;5131065;27;20043;-60
2023/06/12 09:31:04;;;;;;;5.15;3.45;;;;;;;;;;5130911;27;20062;-60
2023/06/12 09:33:31;;;;;;;3.72;3.30;;;;;;;;;;5131459;27;20054;-60
2023/06/12 09:35:58;;;;;;;5.72;3.45;;;;;;;;;;5131216;27;20192;-58
2023/06/12 09:38:35;;;;;;;11.95;3.20;;;;;;;;;;5136676;27;20051;-58
2023/06/12 09:41:03;;;;;;;4.03;3.25;;;;;;;;;;5132268;27;20213;-59
2023/06/12 09:43:30;;;;;;;3.40;3.00;;;;;;;;;;5148859;27;20093;-59
2023/06/12 09:45:59;;;;;;;3.45;3.15;;;;;;;;;;5120896;27;20051;-60
2023/06/12 09:48:36;;;;;;;4.25;3.75;;;;;;;;;;5142432;27;20078;-59
